EDT,Max TemperatureF,Mean TemperatureF,Min TemperatureF,Max Dew PointF,MeanDew PointF,Min DewpointF,Max Humidity, Mean Humidity, Min Humidity, Max Sea Level PressureIn, Mean Sea Level PressureIn, Min Sea Level PressureIn, Max VisibilityMiles, Mean VisibilityMiles, Min VisibilityMiles, Max Wind SpeedMPH, Mean Wind SpeedMPH, Max Gust SpeedMPH,PrecipitationIn, CloudCover, Events, WindDirDegrees
2014-3-1,33,17,1,14,5,-4,80,54,35,30.45,30.31,30.14,10,9,6,10,3,21,0.00,3,,209
2014-3-2,35,30,24,19,15,10,64,52,46,30.12,30.05,30.01,10,10,9,8,5,,0.00,7,,326
2014-3-3,23,18,12,10,-4,-15,58,42,27,30.34,30.19,30.04,10,10,10,20,11,29,0.00,3,,357
2014-3-4,27,14,1,8,0,-8,67,46,31,30.42,30.33,30.26,10,10,10,8,3,,0.00,3,,95
2014-3-5,30,26,19,12,8,5,63,47,36,30.49,30.30,30.22,10,10,10,12,3,18,0.00,6,,9
2014-3-6,28,19,10,5,-2,-9,70,43,21,30.64,30.56,30.50,10,10,10,10,6,,0.00,0,,22
2014-3-7,34,22,9,23,14,2,77,62,56,30.50,30.22,29.93,10,10,9,8,2,,0.00,7,,60
2014-3-8,50,38,26,28,25,21,92,64,38,29.92,29.85,29.77,10,10,7,14,2,22,0.00,4,,289
2014-3-9,37,32,28,26,15,9,70,47,33,30.01,29.95,29.88,10,10,7,13,6,21,0.00,4,,315
2014-3-10,45,38,32,27,22,11,78,56,40,29.91,29.78,29.62,10,8,2,12,4,,0.00,8,Snow,220
2014-3-11,59,45,33,31,27,23,78,55,26,29.72,29.63,29.54,10,9,6,13,6,20,0.00,0,,268
2014-3-12,51,39,26,44,35,19,93,81,56,29.71,29.25,29.03,10,6,0,16,3,26,0.19,7,Fog-Rain,355
2014-3-13,25,20,15,19,4,-9,75,51,25,30.06,29.54,29.17,10,9,4,22,15,37,0.00,5,Snow,315
2014-3-14,39,27,15,25,9,-1,70,47,34,30.22,30.09,29.93,10,10,10,14,7,21,0.00,4,,208
2014-3-15,54,44,34,29,24,19,73,48,27,29.99,29.83,29.75,10,10,10,18,8,33,0.00,5,Rain,260
2014-3-16,36,30,23,17,6,-4,47,37,27,30.21,30.14,29.99,10,10,10,14,9,22,0.00,3,,319
2014-3-17,33,26,19,10,0,-4,63,36,23,30.18,30.11,30.05,10,10,10,12,8,20,0.00,4,,22
2014-3-18,42,29,16,22,6,-3,78,45,15,30.32,30.26,30.16,10,10,10,8,3,17,0.00,0,,99
2014-3-19,41,32,23,37,26,18,100,77,55,30.34,30.15,29.89,10,8,2,15,4,23,0.47,6,Rain,98
2014-3-20,50,42,35,38,31,19,100,76,37,29.87,29.77,29.71,10,6,1,16,6,29,0.17,6,Rain,272
2014-3-21,45,38,30,20,17,15,64,43,31,30.07,29.96,29.87,10,10,10,16,10,30,0.00,2,,281
2014-3-22,59,42,25,33,24,18,78,53,28,30.07,29.90,29.75,10,10,10,23,5,33,0.00,1,,270
2014-3-23,39,31,23,23,15,3,75,49,34,30.13,30.03,29.98,10,10,10,14,5,21,0.00,2,,325
2014-3-24,32,24,17,5,2,0,56,40,28,30.23,30.17,30.09,10,10,10,17,11,24,0.00,0,,310
2014-3-25,35,24,14,12,10,9,79,48,33,30.13,30.04,29.91,10,10,10,12,4,18,0.00,3,,167
2014-3-26,34,28,21,14,2,-5,55,34,22,30.19,29.91,29.75,10,10,10,29,18,40,0.00,1,,323
2014-3-27,42,28,16,22,7,0,62,42,19,30.40,30.32,30.20,10,10,10,13,6,16,0.00,1,,225
2014-3-28,50,42,35,46,37,16,96,78,46,30.24,30.07,29.99,10,5,1,14,6,21,0.08,6,Rain,197
2014-3-29,48,40,35,44,39,33,97,89,71,30.23,30.07,29.80,10,4,0,15,3,23,1.09,6,Fog-Rain,68
2014-3-30,45,41,36,43,40,38,93,90,87,29.77,29.60,29.54,10,3,2,16,11,28,0.89,8,Rain-Thunderstorm,28
2014-3-31,48,40,33,33,30,24,78,63,52,30.07,29.87,29.72,10,8,2,20,12,36,0.23,6,Rain-Snow,351